Terminal Aerodrome Forecast
Issued by NWS

Home | Current Version | Previous Version | Text Only | Print | Product List | Glossary On
Versions: 1 2 3 4 5 6 7 8 9 10 11 12 13 14 15 16
149
FTUS44 KLIX 271740
TAFGPT
TAF
KGPT 271740Z 2718/2818 VRB05KT P6SM SCT028 BKN035
      TEMPO 2719/2721 27018G30KT 2SM SHRA BKN025 OVC090
     FM272300 22009KT 6SM SHRA SCT090
     FM280000 22008KT P6SM SCT100
     FM280800 22004KT P6SM SCT120=

USA.gov is the U.S. government's official web portal to all federal, state and local government web resources and services.